KHST

Homestead ARB Airport

Homestead, Florida, USA
METAR KHST 150056Z 06003KT 10SM FEW034 SCT075 28/24 A3004 RMK AO2A SLP176 T02820237 FZRANO VISNO RWY24 $
Observed Flight Rules
Aug-15 @ 00:56 UTC (10 minutes ago) Visual Flight Rules
Wind Visibility Clouds
60° at 3 knots 10 miles
  • Few at 3,400' AGL
  • Scattered at 7,500' AGL
Temperatures Readings
Current 28°C / 82°F
Dewpoint 24°C / 75°F
Humidity 79%
Altimeter 30.04" Hg
Pressure 1017.6 hPa
Elevation 2
METAR KHST 150056Z 06003KT 10SM FEW034 SCT075 28/24 A3004 RMK AO2A SLP176 T02820237 FZRANO VISNO RWY24 $
Observed Flight Rules
Aug-15 @ 00:56 UTC
(10 minutes ago)
VFR
Wind Visibility
60° at 3 knots 10 miles
Clouds
  • Few at 3,400' AGL
  • Scattered at 7,500' AGL
Temperature Dewpoint
28°C / 82°F 24°C / 75°F
Humidity Altimeter Pressure
79% 30.04" Hg 1017.6 hPa